»·PEaware :: N364CM KTUS-KELP

N364CM :: KTUS-KELP

FLIGHT INFORMATION

Flight Status: Arrived
Operator: Privately registered:
United States
More flights under this callsign
Pilot: Brian S. (32023)
Aircraft: BEECH AIRCRAFT SUPER KING AIR 350
(B350)
More flights by this aircraft type
Origin: KTUS Tucson Intl
United States
Destination: KELP El Paso Intl
United States
More flights between these airports :: More routes between these airports
Route: +SSO V16 ELP
File this flight plan on PilotEdge
Remarks:
Altitude:
(Current/Filed)
9,000ft
Speed:
(Current/Filed)
260kts
Departed: 15-Oct-20 08:23 PM
Arrived: 15-Oct-20 09:29 PM
Distance/Time
Traveled:
233nm/1:06
Distance/Time
To Go:
Arrived

Flight Plot

Page will automatically refresh every two minutes.

Flight plan parsing failed; only flown route is shown


Map Options




Map Legend


Flown Route
Filed Route
Departure Airport
Arrival Airport
Navaid (VOR, NDB)
Fix

Horizontal Profiles

Position Reports

Time Latitude Longitude Heading Altitude Ground
Speed
15-Oct-20 20:06 32.125642 -110.945515 224 2575ft 0kts
15-Oct-20 20:08 32.125642 -110.945515 224 2575ft 0kts
15-Oct-20 20:09 32.125642 -110.945515 224 2575ft 0kts
15-Oct-20 20:10 32.125642 -110.945515 224 2575ft 0kts
15-Oct-20 20:11 32.125642 -110.945515 224 2575ft 0kts
15-Oct-20 20:12 32.125642 -110.945515 224 2575ft 0kts
15-Oct-20 20:13 32.125642 -110.945515 224 2575ft 0kts
15-Oct-20 20:14 32.125642 -110.945515 224 2575ft 0kts
15-Oct-20 20:15 32.125642 -110.945515 224 2575ft 0kts
15-Oct-20 20:16 32.125642 -110.945515 224 2575ft 0kts
15-Oct-20 20:17 32.125642 -110.945515 224 2575ft 0kts
15-Oct-20 20:18 32.125642 -110.945515 224 2575ft 0kts
15-Oct-20 20:19 32.125642 -110.945515 224 2575ft 0kts
15-Oct-20 20:20 32.124859 -110.947464 223 2573ft 16kts
15-Oct-20 20:21 32.124469 -110.947905 219 2572ft 0kts
15-Oct-20 20:22 32.123211 -110.947753 137 2575ft 0kts
15-Oct-20 20:22 32.114931 -110.938069 135 2613ft 122kts
15-Oct-20 20:24 32.082794 -110.895265 129 3795ft 153kts
15-Oct-20 20:24 32.057939 -110.858891 130 4264ft 183kts
15-Oct-20 20:26 32.019374 -110.805403 130 5297ft 184kts
15-Oct-20 20:26 31.991697 -110.767006 130 5952ft 185kts
15-Oct-20 20:28 31.980283 -110.707627 63 6754ft 186kts
15-Oct-20 20:28 31.993019 -110.659028 76 7336ft 187kts
15-Oct-20 20:29 32.005280 -110.599218 76 8049ft 188kts
15-Oct-20 20:30 32.017475 -110.539188 76 8740ft 189kts
15-Oct-20 20:31 32.029702 -110.478840 76 9394ft 190kts
15-Oct-20 20:32 32.041957 -110.418195 76 10011ft 190kts
15-Oct-20 20:33 32.054243 -110.357236 76 10594ft 191kts
15-Oct-20 20:34 32.066537 -110.296070 76 11145ft 192kts
15-Oct-20 20:35 32.075066 -110.234030 92 11667ft 192kts
15-Oct-20 20:36 32.072404 -110.170739 93 12153ft 193kts
15-Oct-20 20:37 32.069244 -110.107299 93 12620ft 194kts
15-Oct-20 20:38 32.065963 -110.043242 93 12927ft 202kts
15-Oct-20 20:39 32.062360 -109.973906 93 12929ft 222kts
15-Oct-20 20:40 32.058340 -109.897469 93 12923ft 241kts
15-Oct-20 20:41 32.054083 -109.817289 93 12919ft 249kts
15-Oct-20 20:42 32.049677 -109.735241 93 12918ft 252kts
15-Oct-20 20:43 32.045179 -109.652458 93 12918ft 253kts
15-Oct-20 20:44 32.040608 -109.569347 93 12917ft 254kts
15-Oct-20 20:45 32.035976 -109.486110 93 12917ft 254kts
15-Oct-20 20:46 32.031284 -109.402783 93 12917ft 255kts
15-Oct-20 20:47 32.026532 -109.319409 94 12917ft 255kts
15-Oct-20 20:48 32.021731 -109.236126 94 12917ft 255kts
15-Oct-20 20:49 32.016870 -109.152735 94 12917ft 255kts
15-Oct-20 20:50 32.011956 -109.069381 94 12917ft 255kts
15-Oct-20 20:51 32.006979 -108.985880 94 12917ft 255kts
15-Oct-20 20:52 32.001968 -108.902738 94 12917ft 255kts
15-Oct-20 20:53 31.996884 -108.819304 94 12917ft 255kts
15-Oct-20 20:54 31.991751 -108.735963 94 12917ft 255kts
15-Oct-20 20:55 31.986567 -108.652680 94 12917ft 255kts
15-Oct-20 20:56 31.981315 -108.569201 94 12917ft 255kts
15-Oct-20 20:57 31.976015 -108.485836 94 12917ft 255kts
15-Oct-20 20:58 31.970663 -108.402542 94 12859ft 258kts
15-Oct-20 20:59 31.965179 -108.318080 94 12807ft 257kts
15-Oct-20 21:00 31.959676 -108.234154 94 12806ft 256kts
15-Oct-20 21:01 31.954145 -108.150657 94 12806ft 256kts
15-Oct-20 21:02 31.948560 -108.067156 94 12806ft 255kts
15-Oct-20 21:03 31.942924 -107.983729 94 12806ft 255kts
15-Oct-20 21:04 31.937227 -107.900213 94 12806ft 255kts
15-Oct-20 21:05 31.931484 -107.816834 94 12806ft 255kts
15-Oct-20 21:06 31.925700 -107.733671 94 12806ft 255kts
15-Oct-20 21:07 31.919832 -107.650078 94 12806ft 255kts
15-Oct-20 21:08 31.913939 -107.566927 94 12806ft 255kts
15-Oct-20 21:09 31.907968 -107.483448 94 12806ft 255kts
15-Oct-20 21:10 31.901943 -107.399986 94 12806ft 255kts
15-Oct-20 21:11 31.895877 -107.316747 95 12806ft 256kts
15-Oct-20 21:12 31.889720 -107.233012 95 12806ft 256kts
15-Oct-20 21:13 31.883552 -107.149861 95 12806ft 256kts
15-Oct-20 21:14 31.877303 -107.066381 95 12806ft 256kts
15-Oct-20 21:15 31.870991 -106.982812 95 12806ft 256kts
15-Oct-20 21:16 31.864657 -106.899454 95 12806ft 256kts
15-Oct-20 21:17 31.858250 -106.816052 95 12806ft 256kts
15-Oct-20 21:18 31.837964 -106.739287 136 12733ft 257kts
15-Oct-20 21:19 31.785160 -106.681389 138 11796ft 252kts
15-Oct-20 21:20 31.726668 -106.648644 157 10236ft 221kts
15-Oct-20 21:21 31.672306 -106.622561 151 8693ft 203kts
15-Oct-20 21:22 31.677230 -106.571199 46 7261ft 182kts
15-Oct-20 21:23 31.707866 -106.530331 49 6404ft 169kts
15-Oct-20 21:24 31.736336 -106.490740 49 5513ft 134kts
15-Oct-20 21:25 31.759524 -106.459178 50 5152ft 129kts
15-Oct-20 21:26 31.781755 -106.427364 51 4506ft 124kts
15-Oct-20 21:27 31.803426 -106.397331 48 3918ft 106kts
15-Oct-20 21:28 31.811719 -106.385565 54 3929ft 32kts
15-Oct-20 21:29 31.809496 -106.385024 229 3929ft 13kts
15-Oct-20 21:30 31.805499 -106.389760 222 3925ft 23kts
15-Oct-20 21:31 31.801905 -106.391894 150 3922ft 13kts
15-Oct-20 21:32 31.797425 -106.386314 135 3930ft 25kts
15-Oct-20 21:33 31.796176 -106.380575 58 3940ft 19kts
15-Oct-20 21:34 31.798143 -106.377304 310 3941ft 0kts
15-Oct-20 21:35 31.798143 -106.377304 310 3941ft 0kts
15-Oct-20 21:36 31.798143 -106.377304 310 3941ft 0kts
15-Oct-20 21:37 31.798143 -106.377303 310 3941ft 0kts

Navigation Log

Ident Type
Flight plan parsing failed, navigation log unavailable